sensor_id;sensor_type;location;lat;lon;timestamp;pressure;altitude;pressure_sealevel;temperature;humidity
38038;BME280;23843;51.320;12.340;2023-03-01T05:30:31;101666.41;;;-2.09;100.00
38038;BME280;23843;51.320;12.340;2023-03-01T05:32:57;101666.31;;;-2.12;100.00
38038;BME280;23843;51.320;12.340;2023-03-01T05:35:23;101659.34;;;-2.15;100.00
38038;BME280;23843;51.320;12.340;2023-03-01T05:37:49;101666.94;;;-2.26;100.00
38038;BME280;23843;51.320;12.340;2023-03-01T05:40:17;101666.13;;;-2.23;100.00
38038;BME280;23843;51.320;12.340;2023-03-01T05:42:43;101662.66;;;-2.24;100.00
38038;BME280;23843;51.320;12.340;2023-03-01T05:45:09;101666.03;;;-2.28;100.00
38038;BME280;23843;51.320;12.340;2023-03-01T05:47:38;101662.53;;;-2.30;100.00
38038;BME280;23843;51.320;12.340;2023-03-01T05:50:05;101666.00;;;-2.31;100.00
38038;BME280;23843;51.320;12.340;2023-03-01T05:52:31;101668.53;;;-2.34;100.00
38038;BME280;23843;51.320;12.340;2023-03-01T05:54:57;101669.38;;;-2.35;100.00
38038;BME280;23843;51.320;12.340;2023-03-01T05:57:23;101668.53;;;-2.34;100.00
38038;BME280;23843;51.320;12.340;2023-03-01T05:59:49;101671.13;;;-2.34;100.00
38038;BME280;23843;51.320;12.340;2023-03-01T06:02:14;101673.69;;;-2.35;100.00
38038;BME280;23843;51.320;12.340;2023-03-01T06:04:42;101675.41;;;-2.36;100.00
38038;BME280;23843;51.320;12.340;2023-03-01T06:07:08;101681.63;;;-2.28;100.00
38038;BME280;23843;51.320;12.340;2023-03-01T06:09:35;101675.56;;;-2.28;100.00
38038;BME280;23843;51.320;12.340;2023-03-01T06:12:02;101675.56;;;-2.27;100.00
38038;BME280;23843;51.320;12.340;2023-03-01T06:14:28;101673.06;;;-2.22;100.00
38038;BME280;23843;51.320;12.340;2023-03-01T06:17:01;101678.31;;;-2.21;100.00
38038;BME280;23843;51.320;12.340;2023-03-01T06:19:27;101684.25;;;-2.25;100.00
38038;BME280;23843;51.320;12.340;2023-03-01T06:21:55;101685.19;;;-2.23;100.00
38038;BME280;23843;51.320;12.340;2023-03-01T06:24:21;101682.72;;;-2.17;100.00
38038;BME280;23843;51.320;12.340;2023-03-01T06:26:47;101686.22;;;-2.13;100.00
38038;BME280;23843;51.320;12.340;2023-03-01T06:29:13;101682.88;;;-2.07;100.00
38038;BME280;23843;51.320;12.340;2023-03-01T06:31:39;101680.53;;;-1.95;100.00
38038;BME280;23843;51.320;12.340;2023-03-01T06:34:05;101680.63;;;-1.89;100.00
38038;BME280;23843;51.320;12.340;2023-03-01T06:36:31;101675.44;;;-1.89;100.00
38038;BME280;23843;51.320;12.340;2023-03-01T06:38:59;101678.28;;;-1.75;100.00
38038;BME280;23843;51.320;12.340;2023-03-01T06:41:25;101679.28;;;-1.67;100.00
38038;BME280;23843;51.320;12.340;2023-03-01T06:43:52;101678.66;;;-1.54;100.00
38038;BME280;23843;51.320;12.340;2023-03-01T06:46:18;101663.19;;;-1.44;100.00
38038;BME280;23843;51.320;12.340;2023-03-01T06:48:44;101668.50;;;-1.37;100.00
38038;BME280;23843;51.320;12.340;2023-03-01T06:51:12;101667.88;;;-1.23;100.00
38038;BME280;23843;51.320;12.340;2023-03-01T06:53:38;101666.53;;;-0.97;100.00
38038;BME280;23843;51.320;12.340;2023-03-01T06:56:06;101670.84;;;-0.30;100.00
38038;BME280;23843;51.320;12.340;2023-03-01T06:58:31;101670.66;;;0.38;100.00
38038;BME280;23843;51.320;12.340;2023-03-01T07:00:58;101671.94;;;0.87;100.00
38038;BME280;23843;51.320;12.340;2023-03-01T07:03:23;101684.31;;;1.21;95.21
38038;BME280;23843;51.320;12.340;2023-03-01T07:05:53;101672.28;;;1.48;93.75
38038;BME280;23843;51.320;12.340;2023-03-01T07:08:19;101673.25;;;1.68;88.74
38038;BME280;23843;51.320;12.340;2023-03-01T07:10:45;101662.78;;;1.68;86.37
38038;BME280;23843;51.320;12.340;2023-03-01T07:13:12;101667.25;;;2.00;85.93
38038;BME280;23843;51.320;12.340;2023-03-01T07:15:40;101665.50;;;2.08;84.90
38038;BME280;23843;51.320;12.340;2023-03-01T07:18:09;101663.75;;;1.98;83.63
38038;BME280;23843;51.320;12.340;2023-03-01T07:20:35;101660.22;;;1.84;82.25
38038;BME280;23843;51.320;12.340;2023-03-01T07:23:01;101660.22;;;1.90;81.61
38038;BME280;23843;51.320;12.340;2023-03-01T07:25:27;101662.91;;;2.22;81.96
38038;BME280;23843;51.320;12.340;2023-03-01T07:27:54;101655.94;;;2.18;80.87
38038;BME280;23843;51.320;12.340;2023-03-01T07:30:21;101650.69;;;2.58;78.38
38038;BME280;23843;51.320;12.340;2023-03-01T07:32:48;101649.78;;;3.00;74.50
38038;BME280;23843;51.320;12.340;2023-03-01T07:35:14;101647.91;;;3.47;72.82
38038;BME280;23843;51.320;12.340;2023-03-01T07:37:40;101652.59;;;4.36;74.31
38038;BME280;23843;51.320;12.340;2023-03-01T07:40:08;101657.06;;;4.26;63.60
38038;BME280;23843;51.320;12.340;2023-03-01T07:42:36;101656.19;;;4.27;64.09
38038;BME280;23843;51.320;12.340;2023-03-01T07:45:02;101645.31;;;4.74;67.94
38038;BME280;23843;51.320;12.340;2023-03-01T07:47:29;101646.28;;;5.45;64.33
38038;BME280;23843;51.320;12.340;2023-03-01T07:49:55;101645.66;;;5.97;58.26
38038;BME280;23843;51.320;12.340;2023-03-01T07:52:21;101644.75;;;6.53;54.77
38038;BME280;23843;51.320;12.340;2023-03-01T07:54:46;101640.00;;;6.75;53.60
38038;BME280;23843;51.320;12.340;2023-03-01T07:57:12;101641.31;;;6.99;52.49
38038;BME280;23843;51.320;12.340;2023-03-01T07:59:37;101644.41;;;7.66;48.65
38038;BME280;23843;51.320;12.340;2023-03-01T08:02:03;101640.09;;;8.74;50.06
38038;BME280;23843;51.320;12.340;2023-03-01T08:04:30;101637.44;;;9.99;45.51
38038;BME280;23843;51.320;12.340;2023-03-01T08:06:57;101641.50;;;10.90;44.24
38038;BME280;23843;51.320;12.340;2023-03-01T08:09:23;101641.69;;;10.59;42.11
38038;BME280;23843;51.320;12.340;2023-03-01T08:11:49;101631.41;;;10.50;44.38
38038;BME280;23843;51.320;12.340;2023-03-01T08:14:15;101627.28;;;10.93;38.26
38038;BME280;23843;51.320;12.340;2023-03-01T08:16:41;101622.09;;;11.39;37.36
38038;BME280;23843;51.320;12.340;2023-03-01T08:19:10;101623.97;;;12.06;36.49
38038;BME280;23843;51.320;12.340;2023-03-01T08:21:37;101632.28;;;11.96;35.66
38038;BME280;23843;51.320;12.340;2023-03-01T08:24:05;101632.94;;;12.25;40.96
38038;BME280;23843;51.320;12.340;2023-03-01T08:26:32;101625.56;;;12.32;34.89
38038;BME280;23843;51.320;12.340;2023-03-01T08:29:00;101619.16;;;13.19;36.70
38038;BME280;23843;51.320;12.340;2023-03-01T08:31:27;101620.50;;;12.89;33.00
38038;BME280;23843;51.320;12.340;2023-03-01T08:33:55;101615.03;;;13.33;32.19
38038;BME280;23843;51.320;12.340;2023-03-01T08:36:21;101619.97;;;12.60;37.26
38038;BME280;23843;51.320;12.340;2023-03-01T08:38:48;101615.81;;;12.32;33.40
38038;BME280;23843;51.320;12.340;2023-03-01T08:41:14;101606.63;;;13.80;34.57
38038;BME280;23843;51.320;12.340;2023-03-01T08:43:41;101603.03;;;14.88;34.77
38038;BME280;23843;51.320;12.340;2023-03-01T08:46:07;101600.53;;;15.52;30.09
38038;BME280;23843;51.320;12.340;2023-03-01T08:48:33;101605.81;;;15.36;33.06
38038;BME280;23843;51.320;12.340;2023-03-01T08:51:07;101606.34;;;15.76;34.92
38038;BME280;23843;51.320;12.340;2023-03-01T08:53:34;101599.66;;;16.31;33.71
38038;BME280;23843;51.320;12.340;2023-03-01T08:56:01;101600.34;;;15.55;28.60
38038;BME280;23843;51.320;12.340;2023-03-01T08:58:28;101602.88;;;14.91;31.04
38038;BME280;23843;51.320;12.340;2023-03-01T09:00:54;101598.78;;;15.35;32.97
38038;BME280;23843;51.320;12.340;2023-03-01T09:03:20;101603.41;;;15.31;32.70
38038;BME280;23843;51.320;12.340;2023-03-01T09:05:45;101599.25;;;15.10;32.79
38038;BME280;23843;51.320;12.340;2023-03-01T09:08:11;101605.44;;;15.10;30.56
38038;BME280;23843;51.320;12.340;2023-03-01T09:10:38;101596.06;;;14.51;32.17
38038;BME280;23843;51.320;12.340;2023-03-01T09:13:06;101589.34;;;14.25;30.42
38038;BME280;23843;51.320;12.340;2023-03-01T09:15:31;101586.41;;;15.16;30.80
38038;BME280;23843;51.320;12.340;2023-03-01T09:17:57;101584.50;;;14.50;32.72
38038;BME280;23843;51.320;12.340;2023-03-01T09:20:24;101591.13;;;12.71;32.14
38038;BME280;23843;51.320;12.340;2023-03-01T09:22:50;101591.19;;;11.83;33.29
38038;BME280;23843;51.320;12.340;2023-03-01T09:25:16;101596.56;;;12.05;34.96
38038;BME280;23843;51.320;12.340;2023-03-01T09:27:41;101588.41;;;12.10;32.13
38038;BME280;23843;51.320;12.340;2023-03-01T09:30:10;101592.97;;;13.10;32.35
38038;BME280;23843;51.320;12.340;2023-03-01T09:32:37;101579.38;;;13.37;30.82
38038;BME280;23843;51.320;12.340;2023-03-01T09:35:04;101579.78;;;13.27;30.22
38038;BME280;23843;51.320;12.340;2023-03-01T09:37:32;101583.22;;;11.83;32.40
38038;BME280;23843;51.320;12.340;2023-03-01T09:39:57;101587.03;;;10.30;34.99
38038;BME280;23843;51.320;12.340;2023-03-01T09:42:24;101584.59;;;8.75;37.29
38038;BME280;23843;51.320;12.340;2023-03-01T09:44:52;101592.91;;;7.87;39.03
38038;BME280;23843;51.320;12.340;2023-03-01T09:47:24;101580.56;;;7.48;40.82
38038;BME280;23843;51.320;12.340;2023-03-01T09:49:59;101575.78;;;7.25;41.50
38038;BME280;23843;51.320;12.340;2023-03-01T09:52:30;101577.06;;;7.06;42.69
38038;BME280;23843;51.320;12.340;2023-03-01T09:55:00;101591.03;;;6.64;43.32
38038;BME280;23843;51.320;12.340;2023-03-01T09:57:30;101588.97;;;6.32;44.18
38038;BME280;23843;51.320;12.340;2023-03-01T10:00:09;101573.50;;;6.63;43.37
38038;BME280;23843;51.320;12.340;2023-03-01T10:02:44;101582.22;;;6.65;43.85
38038;BME280;23843;51.320;12.340;2023-03-01T10:05:19;101579.47;;;6.73;43.69
38038;BME280;23843;51.320;12.340;2023-03-01T10:07:56;101579.25;;;6.84;44.02
38038;BME280;23843;51.320;12.340;2023-03-01T10:10:33;101580.06;;;6.39;44.94
38038;BME280;23843;51.320;12.340;2023-03-01T10:13:00;101580.94;;;6.40;44.82
38038;BME280;23843;51.320;12.340;2023-03-01T10:15:34;101577.59;;;5.70;47.38
38038;BME280;23843;51.320;12.340;2023-03-01T10:18:06;101584.53;;;5.77;47.33
38038;BME280;23843;51.320;12.340;2023-03-01T10:20:43;101581.25;;;5.61;48.54
38038;BME280;23843;51.320;12.340;2023-03-01T10:23:11;101576.94;;;5.55;49.50
38038;BME280;23843;51.320;12.340;2023-03-01T10:25:44;101583.16;;;5.51;49.92
38038;BME280;23843;51.320;12.340;2023-03-01T10:28:17;101570.75;;;5.58;50.65
38038;BME280;23843;51.320;12.340;2023-03-01T10:30:45;101576.81;;;5.65;53.69
38038;BME280;23843;51.320;12.340;2023-03-01T10:33:17;101568.88;;;5.68;52.99
38038;BME280;23843;51.320;12.340;2023-03-01T10:35:46;101568.75;;;5.77;53.98
38038;BME280;23843;51.320;12.340;2023-03-01T10:38:13;101575.97;;;5.63;52.35
38038;BME280;23843;51.320;12.340;2023-03-01T10:40:51;101568.13;;;5.58;52.16
38038;BME280;23843;51.320;12.340;2023-03-01T10:43:19;101571.00;;;5.41;53.17
38038;BME280;23843;51.320;12.340;2023-03-01T10:45:46;101577.09;;;5.43;51.13
38038;BME280;23843;51.320;12.340;2023-03-01T10:48:15;101566.66;;;5.39;51.01
38038;BME280;23843;51.320;12.340;2023-03-01T10:50:43;101561.56;;;5.26;50.67
38038;BME280;23843;51.320;12.340;2023-03-01T10:53:22;101559.88;;;5.21;50.57
38038;BME280;23843;51.320;12.340;2023-03-01T10:55:56;101553.91;;;5.06;50.71
38038;BME280;23843;51.320;12.340;2023-03-01T10:58:23;101555.94;;;4.86;52.20
38038;BME280;23843;51.320;12.340;2023-03-01T11:00:51;101553.22;;;4.93;51.81
38038;BME280;23843;51.320;12.340;2023-03-01T11:03:22;101559.31;;;4.94;51.46
38038;BME280;23843;51.320;12.340;2023-03-01T11:05:54;101555.06;;;4.82;51.35
38038;BME280;23843;51.320;12.340;2023-03-01T11:08:32;101558.66;;;4.75;50.96
38038;BME280;23843;51.320;12.340;2023-03-01T11:11:16;101552.63;;;4.68;51.26
38038;BME280;23843;51.320;12.340;2023-03-01T11:13:53;101556.06;;;4.74;51.34
38038;BME280;23843;51.320;12.340;2023-03-01T11:16:25;101549.84;;;4.81;51.35
38038;BME280;23843;51.320;12.340;2023-03-01T11:19:06;101548.94;;;4.83;52.27
38038;BME280;23843;51.320;12.340;2023-03-01T11:21:41;101549.91;;;4.76;52.77
38038;BME280;23843;51.320;12.340;2023-03-01T11:24:12;101535.84;;;4.82;51.98
38038;BME280;23843;51.320;12.340;2023-03-01T11:26:42;101534.88;;;4.87;56.46
38038;BME280;23843;51.320;12.340;2023-03-01T11:29:15;101536.50;;;4.99;57.66
38038;BME280;23843;51.320;12.340;2023-03-01T11:31:45;101545.31;;;4.93;57.77
38038;BME280;23843;51.320;12.340;2023-03-01T11:34:17;101546.19;;;4.92;55.97
38038;BME280;23843;51.320;12.340;2023-03-01T11:36:49;101539.38;;;4.78;57.78
38038;BME280;23843;51.320;12.340;2023-03-01T11:39:24;101534.16;;;4.75;58.78
38038;BME280;23843;51.320;12.340;2023-03-01T11:42:01;101518.31;;;4.84;58.09
38038;BME280;23843;51.320;12.340;2023-03-01T11:44:32;101541.94;;;4.84;57.73
38038;BME280;23843;51.320;12.340;2023-03-01T11:47:30;101537.91;;;4.50;59.42
38038;BME280;23843;51.320;12.340;2023-03-01T11:50:15;101527.41;;;4.54;61.23
38038;BME280;23843;51.320;12.340;2023-03-01T11:52:52;101518.44;;;4.73;61.44
38038;BME280;23843;51.320;12.340;2023-03-01T11:55:30;101519.22;;;4.81;59.39
38038;BME280;23843;51.320;12.340;2023-03-01T11:58:23;101507.19;;;4.60;60.11
38038;BME280;23843;51.320;12.340;2023-03-01T12:01:08;101506.97;;;4.80;59.32
38038;BME280;23843;51.320;12.340;2023-03-01T12:06:43;101497.34;;;4.79;57.88
38038;BME280;23843;51.320;12.340;2023-03-01T12:09:29;101501.84;;;4.69;58.69
38038;BME280;23843;51.320;12.340;2023-03-01T12:12:27;101502.13;;;4.45;59.92
38038;BME280;23843;51.320;12.340;2023-03-01T12:15:22;101500.31;;;4.52;61.29
38038;BME280;23843;51.320;12.340;2023-03-01T12:18:18;101490.59;;;4.60;60.21
38038;BME280;23843;51.320;12.340;2023-03-01T12:20:54;101487.06;;;4.62;60.18
38038;BME280;23843;51.320;12.340;2023-03-01T12:23:46;101496.56;;;4.72;59.75
38038;BME280;23843;51.320;12.340;2023-03-01T12:26:23;101483.41;;;4.76;59.66
38038;BME280;23843;51.320;12.340;2023-03-01T12:29:02;101488.72;;;4.69;59.03
38038;BME280;23843;51.320;12.340;2023-03-01T12:32:01;101482.72;;;4.58;56.96
38038;BME280;23843;51.320;12.340;2023-03-01T12:34:41;101476.59;;;4.59;56.21
38038;BME280;23843;51.320;12.340;2023-03-01T12:37:21;101474.81;;;4.61;55.98
38038;BME280;23843;51.320;12.340;2023-03-01T12:40:01;101473.13;;;4.56;55.84
38038;BME280;23843;51.320;12.340;2023-03-01T12:42:35;101463.38;;;4.68;54.10
38038;BME280;23843;51.320;12.340;2023-03-01T12:45:26;101460.84;;;4.58;54.19
38038;BME280;23843;51.320;12.340;2023-03-01T12:48:07;101467.09;;;4.47;53.44
38038;BME280;23843;51.320;12.340;2023-03-01T12:50:40;101453.03;;;4.53;53.83
38038;BME280;23843;51.320;12.340;2023-03-01T12:53:14;101451.25;;;4.57;53.14
38038;BME280;23843;51.320;12.340;2023-03-01T12:55:46;101456.66;;;4.44;53.76
38038;BME280;23843;51.320;12.340;2023-03-01T12:58:23;101445.25;;;4.47;53.37
38038;BME280;23843;51.320;12.340;2023-03-01T13:01:00;101440.91;;;4.43;53.79
38038;BME280;23843;51.320;12.340;2023-03-01T13:06:07;101427.75;;;4.47;54.68
38038;BME280;23843;51.320;12.340;2023-03-01T13:08:39;101432.19;;;4.41;55.85
38038;BME280;23843;51.320;12.340;2023-03-01T13:11:15;101425.13;;;4.46;56.21
38038;BME280;23843;51.320;12.340;2023-03-01T13:13:42;101426.03;;;4.45;57.13
38038;BME280;23843;51.320;12.340;2023-03-01T13:16:21;101427.63;;;4.57;57.89
38038;BME280;23843;51.320;12.340;2023-03-01T13:18:48;101432.03;;;4.56;58.42
38038;BME280;23843;51.320;12.340;2023-03-01T13:21:29;101438.00;;;4.67;57.51
38038;BME280;23843;51.320;12.340;2023-03-01T13:23:55;101432.69;;;4.70;55.84
38038;BME280;23843;51.320;12.340;2023-03-01T13:26:22;101430.97;;;4.69;55.39
38038;BME280;23843;51.320;12.340;2023-03-01T13:28:55;101428.28;;;4.76;54.61
38038;BME280;23843;51.320;12.340;2023-03-01T13:31:57;101433.53;;;4.74;53.85
38038;BME280;23843;51.320;12.340;2023-03-01T13:37:30;101417.78;;;4.76;53.27
38038;BME280;23843;51.320;12.340;2023-03-01T13:39:58;101422.09;;;4.80;53.54
38038;BME280;23843;51.320;12.340;2023-03-01T13:42:39;101416.72;;;4.89;52.57
38038;BME280;23843;51.320;12.340;2023-03-01T13:45:16;101409.75;;;4.86;52.97
38038;BME280;23843;51.320;12.340;2023-03-01T13:47:44;101415.81;;;4.91;53.20
38038;BME280;23843;51.320;12.340;2023-03-01T13:50:18;101415.69;;;4.99;52.27
38038;BME280;23843;51.320;12.340;2023-03-01T13:52:45;101411.34;;;4.97;52.08
38038;BME280;23843;51.320;12.340;2023-03-01T13:55:17;101406.84;;;5.08;52.00
38038;BME280;23843;51.320;12.340;2023-03-01T13:57:47;101411.22;;;5.07;51.98
38038;BME280;23843;51.320;12.340;2023-03-01T14:00:29;101412.13;;;5.05;50.67
38038;BME280;23843;51.320;12.340;2023-03-01T14:03:09;101414.66;;;5.11;49.54
38038;BME280;23843;51.320;12.340;2023-03-01T14:05:35;101405.00;;;5.11;49.77
38038;BME280;23843;51.320;12.340;2023-03-01T14:08:02;101394.38;;;5.19;49.51
38038;BME280;23843;51.320;12.340;2023-03-01T14:10:35;101399.75;;;5.14;49.11
38038;BME280;23843;51.320;12.340;2023-03-01T14:13:19;101406.66;;;5.19;48.65
38038;BME280;23843;51.320;12.340;2023-03-01T14:19:20;101375.19;;;5.15;48.39
38038;BME280;23843;51.320;12.340;2023-03-01T14:41:57;101354.56;;;5.45;44.58
38038;BME280;23843;51.320;12.340;2023-03-01T15:03:08;101335.47;;;5.34;42.42
38038;BME280;23843;51.320;12.340;2023-03-01T15:05:36;101336.38;;;5.34;43.09
38038;BME280;23843;51.320;12.340;2023-03-01T15:08:03;101332.81;;;5.37;43.11
38038;BME280;23843;51.320;12.340;2023-03-01T15:10:32;101336.31;;;5.36;42.78
38038;BME280;23843;51.320;12.340;2023-03-01T15:13:10;101338.91;;;5.39;43.14
38038;BME280;23843;51.320;12.340;2023-03-01T15:15:50;101332.75;;;5.40;43.08
38038;BME280;23843;51.320;12.340;2023-03-01T15:18:28;101336.16;;;5.45;42.96
38038;BME280;23843;51.320;12.340;2023-03-01T15:22:50;101317.00;;;5.40;43.27
38038;BME280;23843;51.320;12.340;2023-03-01T15:24:32;101322.38;;;5.32;43.26
38038;BME280;23843;51.320;12.340;2023-03-01T15:29:56;101324.88;;;5.40;43.14
38038;BME280;23843;51.320;12.340;2023-03-01T15:35:44;101320.56;;;5.36;42.50
38038;BME280;23843;51.320;12.340;2023-03-01T15:38:34;101328.47;;;5.34;43.19
38038;BME280;23843;51.320;12.340;2023-03-01T15:41:03;101327.66;;;5.31;42.52
38038;BME280;23843;51.320;12.340;2023-03-01T15:43:39;101325.78;;;5.39;42.50
38038;BME280;23843;51.320;12.340;2023-03-01T15:46:05;101325.84;;;5.34;42.35
38038;BME280;23843;51.320;12.340;2023-03-01T15:48:39;101331.97;;;5.33;42.76
38038;BME280;23843;51.320;12.340;2023-03-01T15:51:12;101323.31;;;5.28;43.21
38038;BME280;23843;51.320;12.340;2023-03-01T15:53:39;101325.09;;;5.28;43.89
38038;BME280;23843;51.320;12.340;2023-03-01T15:56:05;101329.50;;;5.26;43.62
38038;BME280;23843;51.320;12.340;2023-03-01T15:58:31;101331.28;;;5.24;43.14
38038;BME280;23843;51.320;12.340;2023-03-01T16:00:57;101328.69;;;5.21;43.52
38038;BME280;23843;51.320;12.340;2023-03-01T16:03:23;101329.56;;;5.23;43.30
38038;BME280;23843;51.320;12.340;2023-03-01T16:05:49;101323.50;;;5.18;43.52
38038;BME280;23843;51.320;12.340;2023-03-01T16:08:23;101334.13;;;5.10;43.17
38038;BME280;23843;51.320;12.340;2023-03-01T16:14:05;101331.59;;;5.02;44.00
38038;BME280;23843;51.320;12.340;2023-03-01T16:17:36;101325.63;;;4.92;43.68
38038;BME280;23843;51.320;12.340;2023-03-01T16:22:29;101328.22;;;4.96;44.30
38038;BME280;23843;51.320;12.340;2023-03-01T16:35:12;101330.31;;;4.74;43.87
38038;BME280;23843;51.320;12.340;2023-03-01T16:37:41;101324.94;;;4.80;44.10
38038;BME280;23843;51.320;12.340;2023-03-01T16:43:42;101329.63;;;4.59;44.40
38038;BME280;23843;51.320;12.340;2023-03-01T16:50:32;101335.00;;;4.50;45.27
38038;BME280;23843;51.320;12.340;2023-03-01T16:58:05;101334.31;;;4.36;45.78
38038;BME280;23843;51.320;12.340;2023-03-01T17:08:48;101345.00;;;4.20;46.31
38038;BME280;23843;51.320;12.340;2023-03-01T17:20:19;101336.31;;;4.14;47.01
38038;BME280;23843;51.320;12.340;2023-03-01T17:20:55;101345.19;;;4.05;48.17
38038;BME280;23843;51.320;12.340;2023-03-01T17:23:38;101341.72;;;4.03;48.32
38038;BME280;23843;51.320;12.340;2023-03-01T17:29:41;101351.38;;;3.98;48.53
38038;BME280;23843;51.320;12.340;2023-03-01T17:32:27;101353.09;;;3.99;49.07
38038;BME280;23843;51.320;12.340;2023-03-01T17:35:32;101358.34;;;3.99;49.95
38038;BME280;23843;51.320;12.340;2023-03-01T17:38:00;101361.06;;;3.93;50.25
38038;BME280;23843;51.320;12.340;2023-03-01T17:40:25;101361.09;;;3.88;50.29
38038;BME280;23843;51.320;12.340;2023-03-01T17:42:51;101358.53;;;3.83;50.24
38038;BME280;23843;51.320;12.340;2023-03-01T17:45:18;101369.00;;;3.83;50.37
38038;BME280;23843;51.320;12.340;2023-03-01T17:47:46;101371.53;;;3.90;50.18
38038;BME280;23843;51.320;12.340;2023-03-01T17:50:12;101375.09;;;3.82;50.79
38038;BME280;23843;51.320;12.340;2023-03-01T17:52:38;101365.53;;;3.80;50.80
38038;BME280;23843;51.320;12.340;2023-03-01T17:55:04;101369.94;;;3.76;50.47
38038;BME280;23843;51.320;12.340;2023-03-01T17:57:30;101358.69;;;3.67;50.47
38038;BME280;23843;51.320;12.340;2023-03-01T17:59:55;101361.34;;;3.60;51.07
38038;BME280;23843;51.320;12.340;2023-03-01T18:02:23;101365.75;;;3.57;50.86
38038;BME280;23843;51.320;12.340;2023-03-01T18:04:49;101367.53;;;3.53;51.26
38038;BME280;23843;51.320;12.340;2023-03-01T18:07:15;101363.22;;;3.46;51.16
38038;BME280;23843;51.320;12.340;2023-03-01T18:09:41;101365.91;;;3.38;51.39
38038;BME280;23843;51.320;12.340;2023-03-01T18:12:06;101362.38;;;3.44;51.24
38038;BME280;23843;51.320;12.340;2023-03-01T18:14:32;101367.63;;;3.42;51.00
38038;BME280;23843;51.320;12.340;2023-03-01T18:16:58;101364.16;;;3.39;51.14
38038;BME280;23843;51.320;12.340;2023-03-01T18:19:26;101362.41;;;3.36;51.74
38038;BME280;23843;51.320;12.340;2023-03-01T18:21:52;101362.50;;;3.29;52.02
38038;BME280;23843;51.320;12.340;2023-03-01T18:24:18;101362.53;;;3.26;52.10
38038;BME280;23843;51.320;12.340;2023-03-01T18:26:44;101364.28;;;3.24;51.61
38038;BME280;23843;51.320;12.340;2023-03-01T18:29:11;101365.19;;;3.18;52.44
38038;BME280;23843;51.320;12.340;2023-03-01T18:31:37;101368.69;;;3.17;52.54
38038;BME280;23843;51.320;12.340;2023-03-01T18:34:04;101360.00;;;3.15;52.43
38038;BME280;23843;51.320;12.340;2023-03-01T18:36:33;101363.47;;;3.14;52.66
38038;BME280;23843;51.320;12.340;2023-03-01T18:39:00;101349.53;;;3.12;52.06
38038;BME280;23843;51.320;12.340;2023-03-01T18:41:28;101362.66;;;3.09;52.81
38038;BME280;23843;51.320;12.340;2023-03-01T18:43:54;101356.56;;;3.07;52.58
38038;BME280;23843;51.320;12.340;2023-03-01T18:46:23;101352.22;;;3.06;53.50
38038;BME280;23843;51.320;12.340;2023-03-01T18:48:50;101355.72;;;3.03;53.64
38038;BME280;23843;51.320;12.340;2023-03-01T18:51:19;101358.38;;;2.98;53.79
38038;BME280;23843;51.320;12.340;2023-03-01T18:53:47;101359.22;;;2.97;53.79
38038;BME280;23843;51.320;12.340;2023-03-01T18:56:14;101359.28;;;2.93;53.74
38038;BME280;23843;51.320;12.340;2023-03-01T18:58:41;101361.91;;;2.87;53.89
38038;BME280;23843;51.320;12.340;2023-03-01T19:01:11;101361.91;;;2.88;53.48
38038;BME280;23843;51.320;12.340;2023-03-01T19:03:37;101365.44;;;2.84;53.53
38038;BME280;23843;51.320;12.340;2023-03-01T19:06:03;101363.69;;;2.86;53.87
38038;BME280;23843;51.320;12.340;2023-03-01T19:08:31;101361.94;;;2.84;53.56
38038;BME280;23843;51.320;12.340;2023-03-01T19:11:02;101361.97;;;2.79;53.64
38038;BME280;23843;51.320;12.340;2023-03-01T19:13:30;101363.75;;;2.72;53.58
38038;BME280;23843;51.320;12.340;2023-03-01T19:16:02;101362.03;;;2.71;53.78
38038;BME280;23843;51.320;12.340;2023-03-01T19:18:27;101360.28;;;2.69;54.21
38038;BME280;23843;51.320;12.340;2023-03-01T19:20:56;101358.53;;;2.71;53.36
38038;BME280;23843;51.320;12.340;2023-03-01T19:23:24;101359.44;;;2.68;53.83
38038;BME280;23843;51.320;12.340;2023-03-01T19:25:57;101360.28;;;2.66;54.32
38038;BME280;23843;51.320;12.340;2023-03-01T19:28:25;101354.19;;;2.67;54.04
38038;BME280;23843;51.320;12.340;2023-03-01T19:30:56;101350.72;;;2.66;53.69
38038;BME280;23843;51.320;12.340;2023-03-01T19:33:23;101349.88;;;2.60;54.03
38038;BME280;23843;51.320;12.340;2023-03-01T19:35:48;101349.88;;;2.61;53.04
38038;BME280;23843;51.320;12.340;2023-03-01T19:38:14;101351.59;;;2.64;54.37
38038;BME280;23843;51.320;12.340;2023-03-01T19:40:39;101345.50;;;2.60;53.91
38038;BME280;23843;51.320;12.340;2023-03-01T19:43:05;101354.22;;;2.64;53.83
38038;BME280;23843;51.320;12.340;2023-03-01T19:45:33;101348.97;;;2.67;52.89
38038;BME280;23843;51.320;12.340;2023-03-01T19:47:59;101355.06;;;2.63;52.95
38038;BME280;23843;51.320;12.340;2023-03-01T19:50:32;101355.13;;;2.56;53.32
38038;BME280;23843;51.320;12.340;2023-03-01T19:52:58;101355.09;;;2.61;53.12
38038;BME280;23843;51.320;12.340;2023-03-01T19:55:24;101350.75;;;2.62;52.31
38038;BME280;23843;51.320;12.340;2023-03-01T19:57:50;101351.66;;;2.54;53.17
38038;BME280;23843;51.320;12.340;2023-03-01T20:00:17;101352.53;;;2.52;52.74
38038;BME280;23843;51.320;12.340;2023-03-01T20:02:44;101348.19;;;2.45;52.64
38038;BME280;23843;51.320;12.340;2023-03-01T20:05:10;101346.47;;;2.42;52.94
38038;BME280;23843;51.320;12.340;2023-03-01T20:07:36;101343.88;;;2.39;53.50
38038;BME280;23843;51.320;12.340;2023-03-01T20:10:03;101338.59;;;2.44;53.10
38038;BME280;23843;51.320;12.340;2023-03-01T20:12:29;101343.00;;;2.42;52.36
38038;BME280;23843;51.320;12.340;2023-03-01T20:14:55;101349.09;;;2.36;52.76
38038;BME280;23843;51.320;12.340;2023-03-01T20:17:21;101337.78;;;2.34;52.58